createdAt,value
2022-11-14T00:00:52.651Z,80.32
2022-11-14T00:03:39.377Z,79.27
2022-11-14T00:06:25.678Z,78.49
2022-11-14T00:09:11.988Z,80.25
2022-11-14T00:11:58.374Z,81.34
2022-11-14T00:14:45.915Z,80.98
2022-11-14T00:17:32.709Z,80.62
2022-11-14T00:20:19.563Z,82.27
2022-11-14T00:23:06.156Z,79.96
2022-11-14T00:25:53.175Z,80.30
2022-11-14T00:28:39.510Z,81.86
2022-11-14T00:31:27.294Z,79.26
2022-11-14T00:34:13.846Z,81.70
2022-11-14T00:37:00.810Z,80.34
2022-11-14T00:39:47.088Z,81.31
2022-11-14T00:42:34.632Z,81.13
2022-11-14T00:45:21.466Z,81.20
2022-11-14T00:48:09.514Z,80.92
2022-11-14T00:50:55.768Z,82.71
2022-11-14T00:53:42.691Z,81.48
2022-11-14T00:56:29.199Z,80.91
2022-11-14T00:59:15.878Z,82.16
2022-11-14T01:02:02.805Z,83.04
2022-11-14T01:04:50.849Z,81.49
2022-11-14T01:07:37.460Z,81.57
2022-11-14T01:10:24.057Z,79.59
2022-11-14T01:13:10.793Z,80.14
2022-11-14T01:16:01.278Z,81.28
2022-11-14T01:18:47.806Z,79.77
2022-11-14T01:21:35.724Z,79.26
2022-11-14T01:24:22.191Z,80.47
2022-11-14T01:27:08.610Z,81.40
2022-11-14T01:29:55.027Z,80.86
2022-11-14T01:32:41.511Z,81.14
2022-11-14T01:35:27.948Z,80.60
2022-11-14T01:38:16.531Z,80.79
2022-11-14T01:41:03.487Z,81.06
2022-11-14T01:43:50.616Z,79.57
2022-11-14T01:46:39.842Z,79.45
2022-11-14T01:49:32.006Z,80.76
2022-11-14T01:52:22.001Z,79.22
2022-11-14T01:55:11.173Z,80.38
2022-11-14T01:57:59.066Z,80.44
2022-11-14T02:00:45.921Z,81.59
2022-11-14T02:03:32.994Z,81.09
2022-11-14T02:06:23.669Z,83.45
2022-11-14T02:09:10.095Z,82.65
2022-11-14T02:12:02.034Z,82.81
2022-11-14T02:14:53.381Z,82.65
2022-11-14T02:17:40.107Z,82.14
2022-11-14T02:20:29.523Z,82.89
2022-11-14T02:23:17.808Z,82.17
2022-11-14T02:26:04.533Z,81.08
2022-11-14T02:28:51.280Z,82.74
2022-11-14T02:31:37.658Z,81.33
2022-11-14T02:34:24.179Z,82.20
2022-11-14T02:37:12.235Z,82.04
2022-11-14T02:39:58.480Z,81.08
2022-11-14T02:42:44.883Z,82.80
2022-11-14T02:45:31.384Z,81.46
2022-11-14T02:48:17.815Z,79.60
2022-11-14T02:51:04.030Z,79.76
2022-11-14T02:53:51.866Z,80.09
2022-11-14T02:56:38.503Z,81.07
2022-11-14T02:59:24.659Z,80.08
2022-11-14T03:02:10.879Z,82.68
2022-11-14T03:04:57.691Z,82.12
2022-11-14T03:07:44.250Z,81.63
2022-11-14T03:10:31.988Z,82.01
2022-11-14T03:13:18.446Z,80.74
2022-11-14T03:16:09.516Z,80.53
2022-11-14T03:18:55.982Z,81.28
2022-11-14T03:21:42.578Z,80.27
2022-11-14T03:24:28.955Z,80.68
2022-11-14T03:27:16.720Z,81.59
2022-11-14T03:30:03.403Z,81.47
2022-11-14T03:32:49.884Z,82.12
2022-11-14T03:35:36.157Z,80.65
2022-11-14T03:38:23.116Z,79.71
2022-11-14T03:41:09.566Z,80.22
2022-11-14T03:43:57.450Z,80.42
2022-11-14T03:46:43.965Z,80.05
2022-11-14T03:49:30.102Z,80.33
2022-11-14T03:52:16.592Z,81.21
2022-11-14T03:55:02.922Z,80.58
2022-11-14T03:57:49.216Z,80.58
2022-11-14T04:00:37.194Z,81.04
2022-11-14T04:03:23.703Z,81.32
2022-11-14T04:06:10.381Z,81.67
2022-11-14T04:08:57.408Z,83.56
2022-11-14T04:11:43.928Z,81.46
2022-11-14T04:14:30.224Z,82.88
2022-11-14T04:17:17.948Z,81.45
2022-11-14T04:20:04.610Z,81.99
2022-11-14T04:22:51.140Z,82.88
2022-11-14T04:25:37.358Z,82.63
2022-11-14T04:28:23.682Z,83.54
2022-11-14T04:31:10.187Z,83.22
2022-11-14T04:33:57.985Z,82.35
2022-11-14T04:36:44.566Z,82.92
2022-11-14T04:39:30.806Z,82.33
2022-11-14T04:42:17.087Z,82.28
2022-11-14T04:45:03.390Z,81.99
2022-11-14T04:47:50.208Z,82.75
2022-11-14T04:50:38.087Z,82.42
2022-11-14T04:53:24.245Z,81.18
2022-11-14T04:56:10.386Z,82.44
2022-11-14T04:58:56.744Z,81.67
2022-11-14T05:01:43.374Z,81.96
2022-11-14T05:04:29.555Z,82.09
2022-11-14T05:07:17.390Z,82.21
2022-11-14T05:10:03.802Z,82.31
2022-11-14T05:12:50.060Z,81.55
2022-11-14T05:15:37.136Z,82.17
2022-11-14T05:18:23.628Z,82.82
2022-11-14T05:21:13.628Z,82.50
2022-11-14T05:24:01.376Z,82.60
2022-11-14T05:26:47.746Z,82.10
2022-11-14T05:29:33.863Z,80.91
2022-11-14T05:32:20.188Z,80.37
2022-11-14T05:35:08.143Z,80.43
2022-11-14T05:37:58.912Z,81.20
2022-11-14T05:40:47.795Z,80.48
2022-11-14T05:43:34.077Z,81.78
2022-11-14T05:46:20.496Z,81.37
2022-11-14T05:49:06.647Z,81.44
2022-11-14T05:51:53.093Z,84.23
2022-11-14T05:54:39.612Z,83.23
2022-11-14T05:57:27.541Z,81.49
2022-11-14T06:00:14.839Z,80.96
2022-11-14T06:03:01.116Z,80.76
2022-11-14T06:05:47.416Z,81.42
2022-11-14T06:08:34.144Z,80.26
2022-11-14T06:11:21.821Z,80.15
2022-11-14T06:14:10.995Z,80.92
2022-11-14T06:16:57.745Z,82.28
2022-11-14T06:19:43.960Z,82.79
2022-11-14T06:22:30.368Z,84.21
2022-11-14T06:25:16.721Z,81.98
2022-11-14T06:28:03.041Z,81.25
2022-11-14T06:30:50.771Z,80.39
2022-11-14T06:33:38.277Z,81.29
2022-11-14T06:36:24.931Z,80.58
2022-11-14T06:39:11.448Z,81.39
2022-11-14T06:41:57.910Z,81.53
2022-11-14T06:44:44.486Z,80.77
2022-11-14T06:47:32.277Z,80.81
2022-11-14T06:50:19.093Z,80.76
2022-11-14T06:53:05.721Z,80.20
2022-11-14T06:55:55.833Z,80.25
2022-11-14T06:58:44.140Z,80.34
2022-11-14T07:01:30.919Z,80.40
2022-11-14T07:04:19.150Z,79.81
2022-11-14T07:07:05.485Z,82.45
2022-11-14T07:09:54.333Z,80.69
2022-11-14T07:12:40.465Z,79.80
2022-11-14T07:15:26.834Z,79.92
2022-11-14T07:18:13.221Z,79.03
2022-11-14T07:21:03.082Z,79.90
2022-11-14T07:23:49.395Z,81.38
2022-11-14T07:26:36.050Z,81.27
2022-11-14T07:29:22.295Z,80.41
2022-11-14T07:32:08.767Z,80.49
2022-11-14T07:35:00.796Z,80.34
2022-11-14T07:37:50.171Z,79.46
2022-11-14T07:40:36.972Z,79.56
2022-11-14T07:43:23.944Z,80.13
2022-11-14T07:46:13.999Z,80.28
2022-11-14T07:49:00.495Z,79.80
2022-11-14T07:51:46.908Z,80.01
2022-11-14T07:54:34.943Z,78.74
2022-11-14T07:57:21.368Z,77.71
2022-11-14T08:00:08.961Z,78.99
2022-11-14T08:02:55.188Z,77.83
2022-11-14T08:05:41.569Z,77.26
2022-11-14T08:08:28.560Z,77.22
2022-11-14T08:11:36.766Z,78.06
2022-11-14T08:14:23.302Z,78.00
2022-11-14T08:17:09.697Z,76.50
2022-11-14T08:19:56.236Z,76.45
2022-11-14T08:22:42.526Z,75.76
2022-11-14T08:25:28.820Z,77.46
2022-11-14T08:28:16.530Z,76.21
2022-11-14T08:31:04.431Z,75.82
2022-11-14T08:33:52.837Z,77.13
2022-11-14T08:36:39.479Z,76.71
2022-11-14T08:39:25.803Z,75.68
2022-11-14T08:42:12.127Z,76.21
2022-11-14T08:44:59.839Z,76.52
2022-11-14T08:47:52.477Z,73.80
2022-11-14T08:50:38.788Z,73.83
2022-11-14T08:53:25.040Z,73.49
2022-11-14T08:56:11.937Z,73.65
2022-11-14T08:58:58.442Z,74.66
2022-11-14T09:01:46.608Z,74.48
2022-11-14T09:04:33.526Z,74.12
2022-11-14T09:07:20.344Z,75.19
2022-11-14T09:10:08.255Z,74.65
2022-11-14T09:12:57.038Z,75.31
2022-11-14T09:15:43.839Z,74.17
2022-11-14T09:18:32.493Z,73.22
2022-11-14T09:21:19.103Z,71.93
2022-11-14T09:24:05.841Z,71.78
2022-11-14T09:26:56.707Z,70.05
2022-11-14T09:29:43.967Z,68.15
2022-11-14T09:32:30.475Z,69.19
2022-11-14T09:35:18.552Z,67.72
2022-11-14T09:38:07.124Z,65.91
2022-11-14T09:41:03.460Z,66.38
2022-11-14T09:44:20.486Z,65.33
2022-11-14T09:47:15.546Z,64.77
2022-11-14T09:50:11.784Z,64.27
2022-11-14T09:53:04.510Z,65.65
2022-11-14T09:55:50.743Z,64.56
2022-11-14T09:58:36.986Z,63.54
2022-11-14T10:01:33.725Z,65.19
2022-11-14T10:04:29.555Z,65.96
2022-11-14T10:07:28.205Z,64.76
2022-11-14T10:10:27.446Z,65.54
2022-11-14T10:13:30.158Z,67.33
2022-11-14T10:16:24.549Z,63.72
2022-11-14T10:19:20.433Z,62.39
2022-11-14T10:22:19.564Z,60.53
2022-11-14T10:25:22.237Z,62.27
2022-11-14T10:28:34.947Z,64.22
2022-11-14T10:31:32.445Z,61.31
2022-11-14T10:34:28.208Z,62.77
2022-11-14T10:37:21.333Z,63.21
2022-11-14T10:40:19.760Z,61.90
2022-11-14T10:43:19.222Z,62.53
2022-11-14T10:46:10.483Z,59.25
2022-11-14T10:49:00.224Z,60.36
2022-11-14T10:51:52.273Z,59.59
2022-11-14T10:54:45.362Z,59.56
2022-11-14T10:57:33.516Z,59.19
2022-11-14T11:00:23.026Z,61.33
2022-11-14T11:03:09.701Z,58.76
2022-11-14T11:05:57.689Z,59.99
2022-11-14T11:09:02.014Z,59.79
2022-11-14T11:11:55.808Z,61.26
2022-11-14T11:14:44.049Z,61.78
2022-11-14T11:17:37.094Z,59.54
2022-11-14T11:20:29.029Z,58.84
2022-11-14T11:23:21.368Z,59.01
2022-11-14T11:26:16.944Z,57.95
2022-11-14T11:29:15.502Z,57.45
2022-11-14T11:32:03.139Z,58.33
2022-11-14T11:34:49.591Z,58.91
2022-11-14T11:37:40.350Z,57.86
2022-11-14T11:40:30.044Z,58.49
2022-11-14T11:43:41.856Z,58.07
2022-11-14T11:46:36.237Z,58.03
2022-11-14T11:49:33.057Z,57.21
2022-11-14T11:52:29.487Z,57.08
2022-11-14T11:55:19.389Z,56.86
2022-11-14T11:58:12.768Z,56.78
2022-11-14T12:00:59.406Z,56.66
2022-11-14T12:03:48.643Z,56.36
2022-11-14T12:06:43.807Z,55.30
2022-11-14T12:10:03.492Z,54.53
2022-11-14T12:12:57.527Z,55.15
2022-11-14T12:15:56.561Z,56.75
2022-11-14T12:19:01.192Z,55.82
2022-11-14T12:22:13.023Z,55.90
2022-11-14T12:25:19.627Z,58.98
2022-11-14T12:28:19.127Z,57.51
2022-11-14T12:31:12.829Z,58.75
2022-11-14T12:34:03.487Z,58.83
2022-11-14T12:36:50.267Z,59.04
2022-11-14T12:39:38.553Z,58.65
2022-11-14T12:42:25.960Z,57.35
2022-11-14T12:45:46.101Z,58.22
2022-11-14T12:48:35.347Z,58.04
2022-11-14T12:51:50.186Z,59.64
2022-11-14T12:54:49.169Z,58.61
2022-11-14T12:57:50.427Z,57.42
2022-11-14T13:00:42.339Z,59.29
2022-11-14T13:03:42.775Z,59.92
2022-11-14T13:06:40.682Z,58.45
2022-11-14T13:09:54.426Z,58.60
2022-11-14T13:13:00.920Z,59.26
2022-11-14T13:16:10.997Z,60.46
2022-11-14T13:19:21.068Z,60.44
2022-11-14T13:22:42.272Z,60.23
2022-11-14T13:25:29.009Z,59.95
2022-11-14T13:28:49.941Z,59.08
2022-11-14T13:31:51.679Z,58.48
2022-11-14T13:34:54.227Z,58.71
2022-11-14T13:37:56.018Z,59.91
2022-11-14T13:40:51.409Z,60.97
2022-11-14T13:43:56.841Z,60.14
2022-11-14T13:46:59.091Z,59.96
2022-11-14T13:50:05.103Z,60.60
2022-11-14T13:52:52.380Z,60.87
2022-11-14T13:55:52.950Z,61.75
2022-11-14T13:58:57.320Z,61.26
2022-11-14T14:02:02.439Z,60.15
2022-11-14T14:04:59.501Z,60.88
2022-11-14T14:07:59.418Z,60.33
2022-11-14T14:11:00.500Z,61.10
2022-11-14T14:13:56.735Z,61.38
2022-11-14T14:16:50.989Z,60.69
2022-11-14T14:19:49.647Z,61.71
2022-11-14T14:22:43.842Z,61.88
2022-11-14T14:25:41.881Z,61.49
2022-11-14T14:28:40.157Z,60.94
2022-11-14T14:31:34.004Z,61.35
2022-11-14T14:34:28.147Z,61.28
2022-11-14T14:37:19.676Z,61.43
2022-11-14T14:40:11.069Z,62.16
2022-11-14T14:42:58.257Z,62.24
2022-11-14T14:45:48.943Z,62.43
2022-11-14T14:48:39.964Z,62.11
2022-11-14T14:51:36.093Z,62.68
2022-11-14T14:54:25.340Z,62.59
2022-11-14T14:57:22.415Z,62.75
2022-11-14T15:00:22.462Z,62.60
2022-11-14T15:03:12.039Z,62.54
2022-11-14T15:06:00.330Z,63.19
2022-11-14T15:08:48.423Z,63.76
2022-11-14T15:11:35.674Z,63.39
2022-11-14T15:14:24.967Z,63.69
2022-11-14T15:17:12.981Z,64.41
2022-11-14T15:19:59.365Z,63.95
2022-11-14T15:23:03.773Z,63.83
2022-11-14T15:26:03.001Z,64.60
2022-11-14T15:28:49.735Z,64.88
2022-11-14T15:31:37.569Z,64.66
2022-11-14T15:34:27.240Z,64.71
2022-11-14T15:37:22.959Z,65.19
2022-11-14T15:40:20.885Z,65.61
2022-11-14T15:43:49.444Z,65.27
2022-11-14T15:46:44.293Z,65.60
2022-11-14T15:49:31.081Z,65.52
2022-11-14T15:52:22.843Z,66.12
2022-11-14T15:55:15.149Z,66.27
2022-11-14T15:58:26.496Z,66.37
2022-11-14T16:01:17.273Z,67.21
2022-11-14T16:04:04.113Z,65.72
2022-11-14T16:06:50.404Z,66.44
2022-11-14T16:09:37.302Z,66.14
2022-11-14T16:12:23.903Z,66.25
2022-11-14T16:15:10.999Z,66.27
2022-11-14T16:17:58.930Z,67.02
2022-11-14T16:20:45.488Z,66.67
2022-11-14T16:23:32.065Z,66.89
2022-11-14T16:26:18.997Z,67.39
2022-11-14T16:29:05.680Z,67.24
2022-11-14T16:31:52.649Z,67.64
2022-11-14T16:34:40.572Z,67.34
2022-11-14T16:37:27.166Z,67.51
2022-11-14T16:40:16.629Z,67.31
2022-11-14T16:43:03.428Z,68.00
2022-11-14T16:45:50.129Z,67.77
2022-11-14T16:48:36.699Z,67.93
2022-11-14T16:51:54.221Z,68.37
2022-11-14T16:54:33.115Z,68.68
2022-11-14T16:57:19.269Z,68.62
2022-11-14T17:00:06.282Z,69.03
2022-11-14T17:02:52.855Z,69.51
2022-11-14T17:05:44.151Z,68.70
2022-11-14T17:08:31.927Z,69.40
2022-11-14T17:11:18.374Z,69.02
2022-11-14T17:14:04.767Z,69.45
2022-11-14T17:16:51.073Z,69.39
2022-11-14T17:19:38.977Z,69.29
2022-11-14T17:22:25.759Z,68.90
2022-11-14T17:25:13.852Z,70.27
2022-11-14T17:28:00.382Z,70.14
2022-11-14T17:30:47.115Z,69.79
2022-11-14T17:33:34.036Z,70.05
2022-11-14T17:36:21.104Z,70.45
2022-11-14T17:39:07.466Z,70.28
2022-11-14T17:41:55.059Z,70.46
2022-11-14T17:44:41.238Z,70.69
2022-11-14T17:47:28.204Z,71.22
2022-11-14T17:50:14.729Z,71.92
2022-11-14T17:53:00.993Z,71.09
2022-11-14T17:55:47.603Z,71.35
2022-11-14T17:58:35.937Z,71.41
2022-11-14T18:01:24.254Z,71.42
2022-11-14T18:04:11.828Z,70.70
2022-11-14T18:06:58.279Z,71.25
2022-11-14T18:09:44.962Z,71.69
2022-11-14T18:12:31.367Z,71.89
2022-11-14T18:15:22.643Z,72.42
2022-11-14T18:18:11.852Z,71.98
2022-11-14T18:20:58.215Z,72.45
2022-11-14T18:23:44.521Z,72.84
2022-11-14T18:26:32.535Z,71.92
2022-11-14T18:29:18.879Z,73.07
2022-11-14T18:32:07.065Z,73.44
2022-11-14T18:34:53.241Z,73.34
2022-11-14T18:37:39.639Z,73.45
2022-11-14T18:40:25.949Z,72.60
2022-11-14T18:43:12.331Z,72.84
2022-11-14T18:46:05.807Z,73.58
2022-11-14T18:48:57.458Z,73.89
2022-11-14T18:51:44.142Z,73.61
2022-11-14T18:54:30.563Z,73.42
2022-11-14T18:57:16.789Z,73.41
2022-11-14T19:00:03.840Z,73.73
2022-11-14T19:02:51.297Z,74.40
2022-11-14T19:05:39.204Z,74.70
2022-11-14T19:08:25.605Z,73.79
2022-11-14T19:11:34.709Z,74.64
2022-11-14T19:14:21.796Z,74.08
2022-11-14T19:17:08.227Z,73.58
2022-11-14T19:19:54.482Z,75.05
2022-11-14T19:22:42.168Z,74.36
2022-11-14T19:25:29.641Z,74.22
2022-11-14T19:28:18.703Z,74.48
2022-11-14T19:31:06.455Z,73.67
2022-11-14T19:33:52.858Z,73.37
2022-11-14T19:36:58.818Z,73.87
2022-11-14T19:39:47.218Z,73.96
2022-11-14T19:42:33.760Z,74.69
2022-11-14T19:45:20.354Z,74.65
2022-11-14T19:48:06.955Z,74.46
2022-11-14T19:51:00.389Z,75.05
2022-11-14T19:53:47.710Z,74.69
2022-11-14T19:56:35.463Z,74.60
2022-11-14T19:59:24.581Z,75.31
2022-11-14T20:02:14.038Z,74.92
2022-11-14T20:05:00.547Z,75.27
2022-11-14T20:07:47.294Z,74.43
2022-11-14T20:10:47.607Z,74.67
2022-11-14T20:13:37.866Z,75.80
2022-11-14T20:16:26.100Z,75.93
2022-11-14T20:19:13.678Z,75.93
2022-11-14T20:22:00.114Z,74.95
2022-11-14T20:24:46.513Z,75.00
2022-11-14T20:27:33.331Z,75.89
2022-11-14T20:30:21.349Z,75.02
2022-11-14T20:33:08.199Z,75.36
2022-11-14T20:35:54.776Z,75.90
2022-11-14T20:38:41.953Z,75.83
2022-11-14T20:41:28.724Z,75.90
2022-11-14T20:44:15.676Z,75.92
2022-11-14T20:47:08.376Z,75.10
2022-11-14T20:49:57.636Z,75.31
2022-11-14T20:52:46.316Z,75.19
2022-11-14T20:55:32.657Z,74.25
2022-11-14T20:58:19.749Z,74.63
2022-11-14T21:01:06.186Z,76.70
2022-11-14T21:03:54.234Z,76.63
2022-11-14T21:06:40.904Z,77.34
2022-11-14T21:09:27.451Z,77.74
2022-11-14T21:12:13.647Z,77.84
2022-11-14T21:15:00.033Z,77.29
2022-11-14T21:17:46.484Z,76.99
2022-11-14T21:20:34.160Z,76.97
2022-11-14T21:23:20.558Z,76.24
2022-11-14T21:26:09.252Z,77.56
2022-11-14T21:28:57.673Z,76.90
2022-11-14T21:31:45.955Z,76.56
2022-11-14T21:34:34.162Z,77.49
2022-11-14T21:37:22.178Z,77.49
2022-11-14T21:40:10.490Z,77.51
2022-11-14T21:42:56.981Z,77.47
2022-11-14T21:45:43.422Z,77.99
2022-11-14T21:48:31.856Z,77.68
2022-11-14T21:51:20.444Z,76.84
2022-11-14T21:54:08.566Z,77.50
2022-11-14T21:56:55.176Z,77.17
2022-11-14T21:59:41.669Z,77.45
2022-11-14T22:02:45.252Z,76.83
2022-11-14T22:05:31.741Z,76.53
2022-11-14T22:08:18.197Z,76.83
2022-11-14T22:11:06.123Z,77.62
2022-11-14T22:13:52.639Z,78.51
2022-11-14T22:16:38.986Z,78.15
2022-11-14T22:19:25.408Z,78.50
2022-11-14T22:22:11.925Z,77.88
2022-11-14T22:24:58.580Z,78.58
2022-11-14T22:27:46.477Z,78.38
2022-11-14T22:30:32.990Z,78.56
2022-11-14T22:33:19.424Z,78.41
2022-11-14T22:36:07.100Z,79.59
2022-11-14T22:38:54.606Z,78.76
2022-11-14T22:41:41.056Z,78.76
2022-11-14T22:44:28.678Z,79.14
2022-11-14T22:47:15.220Z,78.23
2022-11-14T22:50:01.526Z,78.70
2022-11-14T22:52:47.915Z,78.70
2022-11-14T22:55:34.278Z,79.10
2022-11-14T22:58:20.626Z,79.63
2022-11-14T23:01:14.272Z,78.90
2022-11-14T23:04:02.994Z,78.51
2022-11-14T23:06:49.717Z,79.12
2022-11-14T23:09:36.408Z,79.43
2022-11-14T23:12:22.765Z,78.74
2022-11-14T23:15:09.611Z,79.46
2022-11-14T23:17:59.525Z,78.88
2022-11-14T23:20:46.968Z,78.88
2022-11-14T23:23:33.837Z,78.72
2022-11-14T23:26:20.639Z,79.33
2022-11-14T23:29:07.070Z,79.55
2022-11-14T23:31:53.482Z,78.47
2022-11-14T23:34:40.990Z,78.70
2022-11-14T23:37:27.118Z,77.99
2022-11-14T23:40:13.780Z,78.59
2022-11-14T23:43:00.295Z,78.62
2022-11-14T23:45:48.222Z,79.00
2022-11-14T23:48:34.668Z,78.69
2022-11-14T23:51:22.381Z,79.41
2022-11-14T23:54:08.848Z,79.08
2022-11-14T23:56:57.777Z,78.57
2022-11-14T23:59:48.098Z,79.82
